createdAt,value
2023-04-03T00:00:12.873Z,5.17
2023-04-03T00:02:41.725Z,4.33
2023-04-03T00:05:09.311Z,4.80
2023-04-03T00:07:36.554Z,4.60
2023-04-03T00:10:03.817Z,3.83
2023-04-03T00:12:31.004Z,5.93
2023-04-03T00:14:58.106Z,3.87
2023-04-03T00:17:25.244Z,4.30
2023-04-03T00:19:52.447Z,11.37
2023-04-03T00:22:19.566Z,11.40
2023-04-03T00:24:46.648Z,9.00
2023-04-03T00:27:13.841Z,5.17
2023-04-03T00:29:40.987Z,4.13
2023-04-03T00:32:08.097Z,5.50
2023-04-03T00:34:35.432Z,5.93
2023-04-03T00:37:02.601Z,5.10
2023-04-03T00:39:29.816Z,4.23
2023-04-03T00:41:56.926Z,4.83
2023-04-03T00:44:29.992Z,4.80
2023-04-03T00:46:57.105Z,5.73
2023-04-03T00:49:24.264Z,3.53
2023-04-03T00:51:52.013Z,4.10
2023-04-03T00:54:19.159Z,3.47
2023-04-03T00:56:46.279Z,4.20
2023-04-03T00:59:14.273Z,4.63
2023-04-03T01:01:41.545Z,6.90
2023-04-03T01:04:26.045Z,11.30
2023-04-03T01:06:53.189Z,7.50
2023-04-03T01:09:20.402Z,5.60
2023-04-03T01:11:47.515Z,5.33
2023-04-03T01:14:14.693Z,5.47
2023-04-03T01:16:41.789Z,4.57
2023-04-03T01:19:09.768Z,4.07
2023-04-03T01:21:36.883Z,3.63
2023-04-03T01:24:42.523Z,3.77
2023-04-03T01:27:10.093Z,4.53
2023-04-03T01:29:37.284Z,4.07
2023-04-03T01:32:04.539Z,4.13
2023-04-03T01:34:31.745Z,4.83
2023-04-03T01:36:58.847Z,11.17
2023-04-03T01:39:26.071Z,15.07
2023-04-03T01:41:53.295Z,21.67
2023-04-03T01:44:20.546Z,7.53
2023-04-03T01:46:47.731Z,4.43
2023-04-03T01:49:14.902Z,5.13
2023-04-03T01:51:41.988Z,4.70
2023-04-03T01:54:09.138Z,5.30
2023-04-03T01:56:36.370Z,4.13
2023-04-03T01:59:03.466Z,4.10
2023-04-03T02:01:30.743Z,4.80
2023-04-03T02:03:57.935Z,5.77
2023-04-03T02:06:25.464Z,4.87
2023-04-03T02:08:52.644Z,4.13
2023-04-03T02:11:19.783Z,3.90
2023-04-03T02:13:46.896Z,4.17
2023-04-03T02:16:14.508Z,3.40
2023-04-03T02:18:41.662Z,3.27
2023-04-03T02:21:08.778Z,4.60
2023-04-03T02:23:37.906Z,8.37
2023-04-03T02:26:14.826Z,9.37
2023-04-03T02:28:45.217Z,9.60
2023-04-03T02:31:12.317Z,8.10
2023-04-03T02:33:39.495Z,4.00
2023-04-03T02:36:07.055Z,9.10
2023-04-03T02:38:34.344Z,8.47
2023-04-03T02:41:02.413Z,6.23
2023-04-03T02:43:29.548Z,7.30
2023-04-03T02:45:56.724Z,4.70
2023-04-03T02:48:24.184Z,5.60
2023-04-03T02:50:51.294Z,4.77
2023-04-03T02:53:18.616Z,7.60
2023-04-03T02:55:46.026Z,4.67
2023-04-03T02:58:13.148Z,4.83
2023-04-03T03:00:40.262Z,3.53
2023-04-03T03:03:07.760Z,4.60
2023-04-03T03:05:34.878Z,3.97
2023-04-03T03:08:01.986Z,5.13
2023-04-03T03:10:29.113Z,4.20
2023-04-03T03:12:56.200Z,5.53
2023-04-03T03:15:23.314Z,5.10
2023-04-03T03:17:50.471Z,10.97
2023-04-03T03:20:17.770Z,7.40
2023-04-03T03:22:44.880Z,8.77
2023-04-03T03:25:12.042Z,9.13
2023-04-03T03:27:39.414Z,7.17
2023-04-03T03:30:06.906Z,12.57
2023-04-03T03:32:34.111Z,6.53
2023-04-03T03:35:01.251Z,8.03
2023-04-03T03:37:28.662Z,6.07
2023-04-03T03:39:55.827Z,5.57
2023-04-03T03:42:23.402Z,4.70
2023-04-03T03:44:50.582Z,5.10
2023-04-03T03:47:17.728Z,8.13
2023-04-03T03:49:44.834Z,7.73
2023-04-03T03:52:11.998Z,13.73
2023-04-03T03:54:39.798Z,9.80
2023-04-03T03:57:06.945Z,6.93
2023-04-03T03:59:34.122Z,5.27
2023-04-03T04:02:01.322Z,5.57
2023-04-03T04:04:28.475Z,3.20
2023-04-03T04:06:55.713Z,4.80
2023-04-03T04:09:22.872Z,12.50
2023-04-03T04:11:50.149Z,21.90
2023-04-03T04:14:17.281Z,9.00
2023-04-03T04:16:44.506Z,6.57
2023-04-03T04:19:11.685Z,10.77
2023-04-03T04:21:38.852Z,15.50
2023-04-03T04:24:06.144Z,7.57
2023-04-03T04:26:33.258Z,6.17
2023-04-03T04:29:00.826Z,6.70
2023-04-03T04:31:28.135Z,6.23
2023-04-03T04:33:55.325Z,5.77
2023-04-03T04:36:22.590Z,5.80
2023-04-03T04:38:52.126Z,5.20
2023-04-03T04:41:19.689Z,4.40
2023-04-03T04:43:46.781Z,6.07
2023-04-03T04:46:14.081Z,9.00
2023-04-03T04:48:41.475Z,16.27
2023-04-03T04:51:08.734Z,11.70
2023-04-03T04:53:36.001Z,12.70
2023-04-03T04:56:03.327Z,6.27
2023-04-03T04:58:30.445Z,6.50
2023-04-03T05:01:01.361Z,7.10
2023-04-03T05:03:28.487Z,6.63
2023-04-03T05:05:55.598Z,6.53
2023-04-03T05:08:22.838Z,5.30
2023-04-03T05:10:50.033Z,5.23
2023-04-03T05:13:17.162Z,5.50
2023-04-03T05:15:44.317Z,4.37
2023-04-03T05:18:11.433Z,4.10
2023-04-03T05:20:38.554Z,4.80
2023-04-03T05:23:05.692Z,4.73
2023-04-03T05:25:32.884Z,10.07
2023-04-03T05:28:00.000Z,9.20
2023-04-03T05:30:27.103Z,8.40
2023-04-03T05:32:54.319Z,11.67
2023-04-03T05:35:21.583Z,6.37
2023-04-03T05:37:48.760Z,6.27
2023-04-03T05:40:18.138Z,7.87
2023-04-03T05:42:45.977Z,7.43
2023-04-03T05:45:13.149Z,5.30
2023-04-03T05:47:40.384Z,6.20
2023-04-03T05:50:07.590Z,15.87
2023-04-03T05:52:38.324Z,7.73
2023-04-03T05:55:05.746Z,9.23
2023-04-03T05:57:32.951Z,6.80
2023-04-03T06:00:00.466Z,7.57
2023-04-03T06:02:28.055Z,9.17
2023-04-03T06:04:55.836Z,9.10
2023-04-03T06:07:23.849Z,7.67
2023-04-03T06:09:54.170Z,8.27
2023-04-03T06:12:22.142Z,6.60
2023-04-03T06:14:49.628Z,13.53
2023-04-03T06:17:18.906Z,13.67
2023-04-03T06:19:46.617Z,16.13
2023-04-03T06:22:13.888Z,7.23
2023-04-03T06:24:41.266Z,6.53
2023-04-03T06:27:08.381Z,10.70
2023-04-03T06:29:36.055Z,5.73
2023-04-03T06:32:03.194Z,6.80
2023-04-03T06:34:30.362Z,7.20
2023-04-03T06:36:57.601Z,6.33
2023-04-03T06:39:24.778Z,6.93
2023-04-03T06:41:52.138Z,6.20
2023-04-03T06:44:19.379Z,5.53
2023-04-03T06:46:47.539Z,5.63
2023-04-03T06:49:15.942Z,7.47
2023-04-03T06:51:43.115Z,6.63
2023-04-03T06:54:10.248Z,5.47
2023-04-03T06:56:37.652Z,5.37
2023-04-03T06:59:04.855Z,6.20
2023-04-03T07:01:32.052Z,13.93
2023-04-03T07:03:59.491Z,9.87
2023-04-03T07:06:28.164Z,12.07
2023-04-03T07:08:55.478Z,6.90
2023-04-03T07:11:23.339Z,4.10
2023-04-03T07:13:50.711Z,7.43
2023-04-03T07:16:17.902Z,5.43
2023-04-03T07:18:45.040Z,6.60
2023-04-03T07:21:12.206Z,6.13
2023-04-03T07:23:39.348Z,7.27
2023-04-03T07:26:07.550Z,4.93
2023-04-03T07:28:34.715Z,7.43
2023-04-03T07:31:06.621Z,6.20
2023-04-03T07:33:33.763Z,5.77
2023-04-03T07:36:01.520Z,4.70
2023-04-03T07:38:28.863Z,5.00
2023-04-03T07:40:56.282Z,4.97
2023-04-03T07:43:23.512Z,3.50
2023-04-03T07:45:51.827Z,3.77
2023-04-03T07:48:22.525Z,5.53
2023-04-03T07:50:49.706Z,6.03
2023-04-03T07:53:16.942Z,6.07
2023-04-03T07:55:44.117Z,5.10
2023-04-03T07:58:12.045Z,9.73
2023-04-03T08:00:39.740Z,21.60
2023-04-03T08:03:09.605Z,14.03
2023-04-03T08:05:41.573Z,6.97
2023-04-03T08:08:09.174Z,5.83
2023-04-03T08:10:36.380Z,17.57
2023-04-03T08:13:03.536Z,9.93
2023-04-03T08:15:31.631Z,5.50
2023-04-03T08:17:59.208Z,9.47
2023-04-03T08:20:26.740Z,7.63
2023-04-03T08:22:53.858Z,4.80
2023-04-03T08:25:20.952Z,6.70
2023-04-03T08:27:48.147Z,4.53
2023-04-03T08:30:15.449Z,4.90
2023-04-03T08:32:44.102Z,4.43
2023-04-03T08:35:11.697Z,4.10
2023-04-03T08:37:39.113Z,4.23
2023-04-03T08:40:06.689Z,4.93
2023-04-03T08:42:33.953Z,4.20
2023-04-03T08:45:04.236Z,8.40
2023-04-03T08:47:37.455Z,9.23
2023-04-03T08:50:06.852Z,4.40
2023-04-03T08:52:41.468Z,5.43
2023-04-03T08:55:09.402Z,4.63
2023-04-03T08:57:37.287Z,4.77
2023-04-03T09:00:06.450Z,4.63
2023-04-03T09:02:35.405Z,4.13
2023-04-03T09:05:03.530Z,4.07
2023-04-03T09:07:38.594Z,7.57
2023-04-03T09:10:06.372Z,4.57
2023-04-03T09:12:43.660Z,4.17
2023-04-03T09:15:12.248Z,4.33
2023-04-03T09:17:48.535Z,3.30
2023-04-03T09:20:17.233Z,3.97
2023-04-03T09:22:52.163Z,4.73
2023-04-03T09:25:36.913Z,6.30
2023-04-03T09:28:04.062Z,2.90
2023-04-03T09:30:31.337Z,5.77
2023-04-03T09:32:58.613Z,4.30
2023-04-03T09:35:36.341Z,9.23
2023-04-03T09:38:15.231Z,4.20
2023-04-03T09:40:42.503Z,2.50
2023-04-03T09:43:19.000Z,1.87
2023-04-03T09:45:46.750Z,4.13
2023-04-03T09:48:17.180Z,3.23
2023-04-03T09:51:05.382Z,4.00
2023-04-03T09:53:42.790Z,2.73
2023-04-03T09:56:18.895Z,2.70
2023-04-03T09:58:50.909Z,2.57
2023-04-03T10:01:25.366Z,2.30
2023-04-03T10:04:11.269Z,3.30
2023-04-03T10:06:41.737Z,4.43
2023-04-03T10:09:16.987Z,3.53
2023-04-03T10:12:01.233Z,5.60
2023-04-03T10:14:28.571Z,3.40
2023-04-03T10:17:04.923Z,2.33
2023-04-03T10:19:32.126Z,3.13
2023-04-03T10:21:59.205Z,2.57
2023-04-03T10:24:49.638Z,3.67
2023-04-03T10:27:21.717Z,3.33
2023-04-03T10:29:52.116Z,2.20
2023-04-03T10:32:22.372Z,3.23
2023-04-03T10:34:58.525Z,3.13
2023-04-03T10:37:37.677Z,3.50
2023-04-03T10:40:23.548Z,3.00
2023-04-03T10:42:52.313Z,3.50
2023-04-03T10:45:26.474Z,1.90
2023-04-03T10:48:10.794Z,3.80
2023-04-03T10:50:41.079Z,7.70
2023-04-03T10:53:28.072Z,8.60
2023-04-03T10:55:57.560Z,6.30
2023-04-03T10:58:32.015Z,6.03
2023-04-03T11:01:01.107Z,5.30
2023-04-03T11:03:52.812Z,5.40
2023-04-03T11:06:20.110Z,6.13
2023-04-03T11:09:01.337Z,4.97
2023-04-03T11:11:28.973Z,3.30
2023-04-03T11:14:07.110Z,3.80
2023-04-03T11:16:43.481Z,4.57
2023-04-03T11:19:22.523Z,3.93
2023-04-03T11:21:54.061Z,4.67
2023-04-03T11:24:26.346Z,4.47
2023-04-03T11:26:53.498Z,3.20
2023-04-03T11:29:34.152Z,5.37
2023-04-03T11:32:02.962Z,4.83
2023-04-03T11:34:44.191Z,6.90
2023-04-03T11:37:14.404Z,7.40
2023-04-03T11:39:41.564Z,6.33
2023-04-03T11:42:29.172Z,6.30
2023-04-03T11:45:15.135Z,4.10
2023-04-03T11:47:49.387Z,5.90
2023-04-03T11:50:35.459Z,6.77
2023-04-03T11:53:09.068Z,7.60
2023-04-03T11:55:36.961Z,6.47
2023-04-03T11:58:04.303Z,13.60
2023-04-03T12:00:53.129Z,11.43
2023-04-03T12:03:30.101Z,7.00
2023-04-03T12:06:14.578Z,13.10
2023-04-03T12:08:42.451Z,6.40
2023-04-03T12:11:28.471Z,17.60
2023-04-03T12:13:58.434Z,9.97
2023-04-03T12:16:28.433Z,19.97
2023-04-03T12:18:59.734Z,12.60
2023-04-03T12:21:36.066Z,37.97
2023-04-03T12:24:06.975Z,9.40
2023-04-03T12:26:45.958Z,8.93
2023-04-03T12:29:16.612Z,10.50
2023-04-03T12:31:48.122Z,12.73
2023-04-03T12:34:34.031Z,8.30
2023-04-03T12:37:19.865Z,4.00
2023-04-03T12:40:05.905Z,26.40
2023-04-03T12:42:45.493Z,77.83
2023-04-03T12:45:22.241Z,73.30
2023-04-03T12:47:53.021Z,49.03
2023-04-03T12:50:27.045Z,57.10
2023-04-03T12:53:04.144Z,131.13
2023-04-03T12:55:31.295Z,40.33
2023-04-03T12:57:58.422Z,7.40
2023-04-03T13:00:28.826Z,53.07
2023-04-03T13:02:56.591Z,77.47
2023-04-03T13:05:23.858Z,29.77
2023-04-03T13:07:52.031Z,56.37
2023-04-03T13:10:19.449Z,27.93
2023-04-03T13:12:49.652Z,36.80
2023-04-03T13:15:23.812Z,26.27
2023-04-03T13:17:53.414Z,10.70
2023-04-03T13:20:23.465Z,6.80
2023-04-03T13:22:52.009Z,7.33
2023-04-03T13:25:19.499Z,5.67
2023-04-03T13:27:46.678Z,5.90
2023-04-03T13:30:22.828Z,6.80
2023-04-03T13:32:49.967Z,5.77
2023-04-03T13:35:27.537Z,6.10
2023-04-03T13:38:02.059Z,4.43
2023-04-03T13:40:32.478Z,6.53
2023-04-03T13:43:06.847Z,4.37
2023-04-03T13:45:34.695Z,3.83
2023-04-03T13:48:20.255Z,3.87
2023-04-03T13:50:54.616Z,7.57
2023-04-03T13:53:21.740Z,4.73
2023-04-03T13:56:07.583Z,9.10
2023-04-03T13:58:34.794Z,4.87
2023-04-03T14:01:08.037Z,5.60
2023-04-03T14:03:44.206Z,5.90
2023-04-03T14:06:18.186Z,3.30
2023-04-03T14:08:45.802Z,3.60
2023-04-03T14:11:19.827Z,3.27
2023-04-03T14:13:47.011Z,3.17
2023-04-03T14:16:16.276Z,6.05
2023-04-03T14:18:43.888Z,4.57
2023-04-03T14:21:12.987Z,4.30
2023-04-03T14:23:40.094Z,3.87
2023-04-03T14:26:11.492Z,4.33
2023-04-03T14:28:42.658Z,3.60
2023-04-03T14:31:12.046Z,14.02
2023-04-03T14:33:39.227Z,2.85
2023-04-03T14:36:26.307Z,4.85
2023-04-03T14:38:53.707Z,4.00
2023-04-03T14:41:21.979Z,3.90
2023-04-03T14:43:49.368Z,3.80
2023-04-03T14:46:23.278Z,3.57
2023-04-03T14:48:51.369Z,3.63
2023-04-03T14:51:18.506Z,5.00
2023-04-03T14:53:45.950Z,6.27
2023-04-03T14:56:16.531Z,7.37
2023-04-03T14:58:43.684Z,8.30
2023-04-03T15:01:15.127Z,8.03
2023-04-03T15:03:42.465Z,5.53
2023-04-03T15:06:11.154Z,3.53
2023-04-03T15:08:38.317Z,3.30
2023-04-03T15:11:06.195Z,3.80
2023-04-03T15:13:33.296Z,4.10
2023-04-03T15:16:00.431Z,4.60
2023-04-03T15:18:30.873Z,6.07
2023-04-03T15:20:58.223Z,3.87
2023-04-03T15:23:26.951Z,7.57
2023-04-03T15:25:54.568Z,5.40
2023-04-03T15:28:29.616Z,13.80
2023-04-03T15:30:56.737Z,5.03
2023-04-03T15:33:23.999Z,3.23
2023-04-03T15:35:51.243Z,7.40
2023-04-03T15:38:18.439Z,5.00
2023-04-03T15:40:45.619Z,5.30
2023-04-03T15:43:12.775Z,6.13
2023-04-03T15:45:40.288Z,9.80
2023-04-03T15:48:07.673Z,4.00
2023-04-03T15:50:34.889Z,21.27
2023-04-03T15:53:02.646Z,21.05
2023-04-03T15:55:30.533Z,12.33
2023-04-03T15:57:57.691Z,5.87
2023-04-03T16:00:25.433Z,64.37
2023-04-03T16:02:55.270Z,12.73
2023-04-03T16:05:22.568Z,10.77
2023-04-03T16:07:49.693Z,5.17
2023-04-03T16:10:17.393Z,16.27
2023-04-03T16:12:44.581Z,11.30
2023-04-03T16:15:11.918Z,10.53
2023-04-03T16:17:39.065Z,11.17
2023-04-03T16:20:06.675Z,10.70
2023-04-03T16:22:33.870Z,5.23
2023-04-03T16:25:00.965Z,6.17
2023-04-03T16:27:28.651Z,10.37
2023-04-03T16:29:56.286Z,8.20
2023-04-03T16:32:23.565Z,10.80
2023-04-03T16:34:50.726Z,11.70
2023-04-03T16:37:18.159Z,12.17
2023-04-03T16:39:45.417Z,12.67
2023-04-03T16:42:12.584Z,10.67
2023-04-03T16:44:40.726Z,14.30
2023-04-03T16:47:08.822Z,15.83
2023-04-03T16:49:36.355Z,9.40
2023-04-03T16:52:03.949Z,11.37
2023-04-03T16:54:31.198Z,12.50
2023-04-03T16:56:58.333Z,10.63
2023-04-03T16:59:25.993Z,15.67
2023-04-03T17:01:53.119Z,26.13
2023-04-03T17:04:20.387Z,17.07
2023-04-03T17:06:47.531Z,12.43
2023-04-03T17:09:14.599Z,17.47
2023-04-03T17:11:42.331Z,7.60
2023-04-03T17:14:10.230Z,7.50
2023-04-03T17:16:37.590Z,9.60
2023-04-03T17:19:04.869Z,7.93
2023-04-03T17:21:32.680Z,8.40
2023-04-03T17:24:00.986Z,15.60
2023-04-03T17:26:28.204Z,23.63
2023-04-03T17:28:55.656Z,21.90
2023-04-03T17:31:22.791Z,17.03
2023-04-03T17:33:49.912Z,16.80
2023-04-03T17:36:17.090Z,11.23
2023-04-03T17:38:44.253Z,8.97
2023-04-03T17:41:11.438Z,12.90
2023-04-03T17:43:38.545Z,21.40
2023-04-03T17:46:06.743Z,17.43
2023-04-03T17:48:34.214Z,12.03
2023-04-03T17:51:04.647Z,13.50
2023-04-03T17:53:31.815Z,12.53
2023-04-03T17:55:58.926Z,10.87
2023-04-03T17:58:26.096Z,10.93
2023-04-03T18:00:54.304Z,9.73
2023-04-03T18:03:21.406Z,10.50
2023-04-03T18:05:50.783Z,16.80
2023-04-03T18:08:17.887Z,18.10
2023-04-03T18:10:45.040Z,15.47
2023-04-03T18:13:12.280Z,13.87
2023-04-03T18:15:45.447Z,13.63
2023-04-03T18:18:12.826Z,12.33
2023-04-03T18:20:39.983Z,12.83
2023-04-03T18:23:07.073Z,20.20
2023-04-03T18:25:34.264Z,27.83
2023-04-03T18:28:06.243Z,16.77
2023-04-03T18:30:33.708Z,13.20
2023-04-03T18:33:01.160Z,18.60
2023-04-03T18:35:28.343Z,16.67
2023-04-03T18:37:55.453Z,12.70
2023-04-03T18:40:22.573Z,17.10
2023-04-03T18:42:49.705Z,14.57
2023-04-03T18:45:17.226Z,13.57
2023-04-03T18:47:44.349Z,14.17
2023-04-03T18:50:11.719Z,14.77
2023-04-03T18:52:38.844Z,16.40
2023-04-03T18:55:06.513Z,15.37
2023-04-03T18:57:33.640Z,16.87
2023-04-03T19:00:00.896Z,14.17
2023-04-03T19:02:28.919Z,14.53
2023-04-03T19:04:57.477Z,14.83
2023-04-03T19:07:24.592Z,12.97
2023-04-03T19:09:51.734Z,11.40
2023-04-03T19:12:18.822Z,13.23
2023-04-03T19:14:45.917Z,10.43
2023-04-03T19:17:13.002Z,9.37
2023-04-03T19:19:40.212Z,15.17
2023-04-03T19:22:07.804Z,10.80
2023-04-03T19:24:35.069Z,16.63
2023-04-03T19:27:02.202Z,29.47
2023-04-03T19:29:29.259Z,54.83
2023-04-03T19:31:56.394Z,44.87
2023-04-03T19:34:23.489Z,39.53
2023-04-03T19:36:52.168Z,21.87
2023-04-03T19:39:19.408Z,34.07
2023-04-03T19:41:47.321Z,19.47
2023-04-03T19:44:14.412Z,20.37
2023-04-03T19:46:41.769Z,13.70
2023-04-03T19:49:18.534Z,19.07
2023-04-03T19:51:45.644Z,11.53
2023-04-03T19:54:12.721Z,9.50
2023-04-03T19:56:39.837Z,10.27
2023-04-03T19:59:06.992Z,11.17
2023-04-03T20:01:35.329Z,11.23
2023-04-03T20:04:02.793Z,42.20
2023-04-03T20:06:30.002Z,23.50
2023-04-03T20:08:57.471Z,10.80
2023-04-03T20:11:25.168Z,14.40
2023-04-03T20:13:52.387Z,10.20
2023-04-03T20:16:20.744Z,13.67
2023-04-03T20:18:48.868Z,33.33
2023-04-03T20:21:18.748Z,34.50
2023-04-03T20:23:46.197Z,24.23
2023-04-03T20:26:23.165Z,21.07
2023-04-03T20:28:53.791Z,16.47
2023-04-03T20:31:21.725Z,23.33
2023-04-03T20:33:49.485Z,20.53
2023-04-03T20:36:17.250Z,21.20
2023-04-03T20:38:44.514Z,15.80
2023-04-03T20:41:11.738Z,13.87
2023-04-03T20:43:39.908Z,17.47
2023-04-03T20:46:07.026Z,14.07
2023-04-03T20:48:34.360Z,12.33
2023-04-03T20:51:08.548Z,17.17
2023-04-03T20:53:36.031Z,18.00
2023-04-03T20:56:03.762Z,14.73
2023-04-03T20:58:33.016Z,17.83
2023-04-03T21:01:00.329Z,17.23
2023-04-03T21:03:29.268Z,23.23
2023-04-03T21:06:03.745Z,24.30
2023-04-03T21:08:49.699Z,21.20
2023-04-03T21:11:36.378Z,14.03
2023-04-03T21:14:27.757Z,15.90
2023-04-03T21:16:55.000Z,16.20
2023-04-03T21:19:22.134Z,17.60
2023-04-03T21:21:49.782Z,20.10
2023-04-03T21:24:17.227Z,17.07
2023-04-03T21:26:44.419Z,17.57
2023-04-03T21:29:11.599Z,16.67
2023-04-03T21:31:49.030Z,16.27
2023-04-03T21:34:16.426Z,14.53
2023-04-03T21:36:44.611Z,14.33
2023-04-03T21:39:11.908Z,11.47
2023-04-03T21:41:39.146Z,11.97
2023-04-03T21:44:06.272Z,12.00
2023-04-03T21:46:33.489Z,11.80
2023-04-03T21:49:01.346Z,13.10
2023-04-03T21:51:28.900Z,12.57
2023-04-03T21:53:56.494Z,12.77
2023-04-03T21:56:24.319Z,13.33
2023-04-03T21:58:51.886Z,14.67
2023-04-03T22:01:19.208Z,15.27
2023-04-03T22:03:46.686Z,13.00
2023-04-03T22:06:16.385Z,11.83
2023-04-03T22:08:43.607Z,13.40
2023-04-03T22:11:12.853Z,11.00
2023-04-03T22:13:40.088Z,12.93
2023-04-03T22:16:07.605Z,11.60
2023-04-03T22:18:34.967Z,9.40
2023-04-03T22:21:02.104Z,10.37
2023-04-03T22:23:29.254Z,10.57
2023-04-03T22:26:06.317Z,11.63
2023-04-03T22:28:34.254Z,7.33
2023-04-03T22:31:03.033Z,10.03
2023-04-03T22:33:30.733Z,11.50
2023-04-03T22:35:57.943Z,13.30
2023-04-03T22:38:25.590Z,11.13
2023-04-03T22:41:02.225Z,14.30
2023-04-03T22:43:29.689Z,9.27
2023-04-03T22:45:57.102Z,6.67
2023-04-03T22:48:24.566Z,6.70
2023-04-03T22:50:51.932Z,7.37
2023-04-03T22:53:19.246Z,8.80
2023-04-03T22:55:54.420Z,7.67
2023-04-03T22:58:25.649Z,7.77
2023-04-03T23:00:56.337Z,7.63
2023-04-03T23:03:23.562Z,7.53
2023-04-03T23:05:51.667Z,8.20
2023-04-03T23:08:19.256Z,7.33
2023-04-03T23:10:47.031Z,7.13
2023-04-03T23:13:14.187Z,7.07
2023-04-03T23:15:41.285Z,7.20
2023-04-03T23:18:08.426Z,7.07
2023-04-03T23:20:35.593Z,6.97
2023-04-03T23:23:04.186Z,7.47
2023-04-03T23:25:31.339Z,6.93
2023-04-03T23:27:58.469Z,7.60
2023-04-03T23:30:25.624Z,9.23
2023-04-03T23:32:52.747Z,9.47
2023-04-03T23:35:19.843Z,9.23
2023-04-03T23:37:47.020Z,9.83
2023-04-03T23:40:14.098Z,14.23
2023-04-03T23:42:41.405Z,14.43
2023-04-03T23:45:08.877Z,13.70
2023-04-03T23:47:36.684Z,12.43
2023-04-03T23:50:03.899Z,11.80
2023-04-03T23:52:31.113Z,10.67
2023-04-03T23:54:58.677Z,11.17
2023-04-03T23:57:25.758Z,11.33
2023-04-03T23:59:52.906Z,14.27
